createdAt,value
2024-04-17T00:00:45.140Z,99.90
2024-04-17T00:01:51.466Z,99.90
2024-04-17T00:02:55.376Z,99.90
2024-04-17T00:04:02.836Z,99.90
2024-04-17T00:05:09.294Z,99.90
2024-04-17T00:06:14.800Z,99.90
2024-04-17T00:07:21.140Z,99.90
2024-04-17T00:08:24.385Z,99.90
2024-04-17T00:09:28.014Z,99.90
2024-04-17T00:10:31.878Z,99.90
2024-04-17T00:11:38.622Z,99.90
2024-04-17T00:12:42.080Z,99.90
2024-04-17T00:13:45.460Z,99.90
2024-04-17T00:14:49.391Z,99.90
2024-04-17T00:15:56.434Z,99.90
2024-04-17T00:17:03.673Z,99.90
2024-04-17T00:18:09.507Z,99.90
2024-04-17T00:19:13.207Z,99.90
2024-04-17T00:20:22.717Z,99.90
2024-04-17T00:21:29.069Z,99.90
2024-04-17T00:22:32.119Z,99.90
2024-04-17T00:23:38.774Z,99.90
2024-04-17T00:24:42.493Z,99.90
2024-04-17T00:25:45.489Z,99.90
2024-04-17T00:26:49.374Z,99.90
2024-04-17T00:27:54.886Z,99.90
2024-04-17T00:28:58.863Z,99.90
2024-04-17T00:30:02.496Z,99.90
2024-04-17T00:31:12.062Z,99.90
2024-04-17T00:32:23.130Z,99.90
2024-04-17T00:33:27.352Z,99.90
2024-04-17T00:34:30.835Z,99.90
2024-04-17T00:35:35.177Z,99.90
2024-04-17T00:36:44.237Z,99.90
2024-04-17T00:37:47.937Z,99.90
2024-04-17T00:38:52.179Z,99.90
2024-04-17T00:39:55.804Z,99.90
2024-04-17T00:41:02.836Z,99.90
2024-04-17T00:42:06.949Z,99.90
2024-04-17T00:43:11.814Z,99.90
2024-04-17T00:44:18.684Z,99.90
2024-04-17T00:45:31.487Z,99.90
2024-04-17T00:46:39.056Z,99.90
2024-04-17T00:47:45.418Z,99.90
2024-04-17T00:48:51.228Z,99.90
2024-04-17T00:49:55.418Z,99.90
2024-04-17T00:51:01.635Z,99.90
2024-04-17T00:52:07.404Z,99.90
2024-04-17T00:53:17.299Z,99.90
2024-04-17T00:54:23.144Z,99.90
2024-04-17T00:55:27.041Z,99.90
2024-04-17T00:56:35.911Z,99.90
2024-04-17T00:57:41.404Z,99.90
2024-04-17T00:58:45.441Z,99.90
2024-04-17T00:59:49.389Z,99.90
2024-04-17T01:00:55.029Z,99.90
2024-04-17T01:02:04.056Z,99.90
2024-04-17T01:03:23.569Z,99.90
2024-04-17T01:04:30.780Z,99.90
2024-04-17T01:05:35.298Z,99.90
2024-04-17T01:06:39.324Z,99.90
2024-04-17T01:07:43.598Z,99.90
2024-04-17T01:08:50.005Z,99.90
2024-04-17T01:10:00.199Z,99.90
2024-04-17T01:11:04.657Z,99.90
2024-04-17T01:12:08.913Z,99.90
2024-04-17T01:13:14.871Z,99.90
2024-04-17T01:14:19.019Z,99.90
2024-04-17T01:15:25.245Z,99.90
2024-04-17T01:16:29.265Z,99.90
2024-04-17T01:17:35.188Z,99.90
2024-04-17T01:18:42.364Z,99.90
2024-04-17T01:19:47.047Z,99.90
2024-04-17T01:20:50.672Z,99.90
2024-04-17T01:21:56.723Z,99.90
2024-04-17T01:23:00.804Z,99.90
2024-04-17T01:24:07.831Z,99.90
2024-04-17T01:25:11.044Z,99.90
2024-04-17T01:26:14.685Z,99.90
2024-04-17T01:27:23.614Z,99.90
2024-04-17T01:28:27.014Z,99.90
2024-04-17T01:29:30.761Z,99.90
2024-04-17T01:30:37.246Z,99.90
2024-04-17T01:31:43.685Z,99.90
2024-04-17T01:32:47.409Z,99.90
2024-04-17T01:33:51.393Z,99.90
2024-04-17T01:34:58.846Z,99.90
2024-04-17T01:36:02.854Z,99.90
2024-04-17T01:37:07.034Z,99.90
2024-04-17T01:38:14.464Z,99.90
2024-04-17T01:39:20.046Z,99.90
2024-04-17T01:40:23.419Z,99.90
2024-04-17T01:41:30.316Z,99.90
2024-04-17T01:42:33.442Z,99.90
2024-04-17T01:43:36.418Z,99.90
2024-04-17T01:44:42.629Z,99.90
2024-04-17T01:45:50.365Z,99.90
2024-04-17T01:46:53.494Z,99.90
2024-04-17T01:47:57.057Z,99.90
2024-04-17T01:49:03.375Z,99.90
2024-04-17T01:50:13.600Z,99.90
2024-04-17T01:51:17.038Z,99.90
2024-04-17T01:52:23.253Z,99.90
2024-04-17T01:53:27.057Z,99.90
2024-04-17T01:54:35.366Z,99.90
2024-04-17T01:55:39.280Z,99.90
2024-04-17T01:56:50.871Z,99.90
2024-04-17T01:57:54.663Z,99.90
2024-04-17T01:58:57.725Z,99.90
2024-04-17T02:00:01.533Z,99.90
2024-04-17T02:01:17.390Z,99.90
2024-04-17T02:02:20.121Z,99.90
2024-04-17T02:03:24.218Z,99.90
2024-04-17T02:04:30.983Z,99.90
2024-04-17T02:05:34.738Z,99.90
2024-04-17T02:06:38.318Z,99.90
2024-04-17T02:07:44.166Z,99.90
2024-04-17T02:08:51.290Z,99.90
2024-04-17T02:09:57.716Z,99.90
2024-04-17T02:11:01.485Z,99.90
2024-04-17T02:12:05.887Z,99.90
2024-04-17T02:13:11.813Z,99.90
2024-04-17T02:14:16.151Z,99.90
2024-04-17T02:15:20.377Z,99.90
2024-04-17T02:16:24.311Z,99.90
2024-04-17T02:17:31.000Z,99.90
2024-04-17T02:18:36.250Z,99.90
2024-04-17T02:19:39.977Z,99.90
2024-04-17T02:20:45.650Z,99.90
2024-04-17T02:21:51.133Z,99.90
2024-04-17T02:22:55.313Z,99.90
2024-04-17T02:23:59.019Z,99.90
2024-04-17T02:25:07.823Z,99.90
2024-04-17T02:26:14.891Z,99.90
2024-04-17T02:27:19.075Z,99.90
2024-04-17T02:28:23.203Z,99.90
2024-04-17T02:29:29.721Z,99.90
2024-04-17T02:30:32.439Z,99.90
2024-04-17T02:31:43.988Z,99.90
2024-04-17T02:32:52.155Z,99.90
2024-04-17T02:33:58.668Z,99.90
2024-04-17T02:35:33.456Z,99.90
2024-04-17T02:36:37.306Z,99.90
2024-04-17T02:37:40.185Z,99.90
2024-04-17T02:38:49.399Z,99.90
2024-04-17T02:39:52.306Z,99.90
2024-04-17T02:41:14.683Z,99.90
2024-04-17T02:42:19.945Z,99.90
2024-04-17T02:43:27.613Z,99.90
2024-04-17T02:44:33.395Z,99.90
2024-04-17T02:45:36.211Z,99.90
2024-04-17T02:46:47.579Z,99.90
2024-04-17T02:47:55.671Z,99.90
2024-04-17T02:49:01.752Z,99.90
2024-04-17T02:50:07.318Z,99.90
2024-04-17T02:51:12.180Z,99.90
2024-04-17T02:52:15.426Z,99.90
2024-04-17T02:53:23.353Z,99.90
2024-04-17T02:54:28.385Z,99.90
2024-04-17T02:55:33.821Z,99.90
2024-04-17T02:56:44.350Z,99.90
2024-04-17T02:57:51.614Z,99.90
2024-04-17T02:58:59.566Z,99.90
2024-04-17T03:00:08.012Z,99.90
2024-04-17T03:01:17.386Z,99.90
2024-04-17T03:02:23.420Z,99.90
2024-04-17T03:03:28.263Z,99.90
2024-04-17T03:04:39.965Z,99.90
2024-04-17T03:05:44.331Z,99.90
2024-04-17T03:06:51.813Z,99.90
2024-04-17T03:08:03.552Z,99.90
2024-04-17T03:09:13.183Z,99.90
2024-04-17T03:10:48.132Z,99.90
2024-04-17T03:12:00.383Z,99.90
2024-04-17T03:13:07.465Z,99.90
2024-04-17T03:14:11.677Z,99.90
2024-04-17T03:15:19.829Z,99.90
2024-04-17T03:16:29.665Z,99.90
2024-04-17T03:17:35.136Z,99.90
2024-04-17T03:18:41.834Z,99.90
2024-04-17T03:19:47.613Z,99.90
2024-04-17T03:20:55.170Z,99.90
2024-04-17T03:22:02.777Z,99.90
2024-04-17T03:23:07.462Z,99.90
2024-04-17T03:24:11.738Z,99.90
2024-04-17T03:25:20.244Z,99.90
2024-04-17T03:26:24.523Z,99.90
2024-04-17T03:27:35.244Z,99.90
2024-04-17T03:28:41.993Z,99.90
2024-04-17T03:29:46.448Z,99.90
2024-04-17T03:30:56.522Z,99.90
2024-04-17T03:32:12.105Z,99.90
2024-04-17T03:33:18.680Z,99.90
2024-04-17T03:34:21.562Z,99.90
2024-04-17T03:35:24.198Z,99.90
2024-04-17T03:36:32.559Z,99.90
2024-04-17T03:37:43.454Z,99.90
2024-04-17T03:38:47.474Z,99.90
2024-04-17T03:39:54.859Z,99.90
2024-04-17T03:41:01.845Z,99.90
2024-04-17T03:42:07.507Z,99.90
2024-04-17T03:43:14.473Z,99.90
2024-04-17T03:44:20.159Z,99.90
2024-04-17T03:45:28.385Z,99.90
2024-04-17T03:46:32.364Z,99.90
2024-04-17T03:47:39.033Z,99.90
2024-04-17T03:48:44.627Z,99.90
2024-04-17T03:49:48.748Z,99.90
2024-04-17T03:50:52.640Z,99.90
2024-04-17T03:52:04.572Z,99.90
2024-04-17T03:53:11.624Z,99.90
2024-04-17T03:54:19.460Z,99.90
2024-04-17T03:55:24.829Z,99.90
2024-04-17T03:56:28.363Z,99.90
2024-04-17T03:57:31.962Z,99.90
2024-04-17T03:58:40.439Z,99.90
2024-04-17T03:59:48.803Z,99.90
2024-04-17T04:00:57.023Z,99.90
2024-04-17T04:02:04.348Z,99.90
2024-04-17T04:03:12.275Z,99.90
2024-04-17T04:04:23.993Z,99.90
2024-04-17T04:05:31.976Z,99.90
2024-04-17T04:06:38.898Z,99.90
2024-04-17T04:07:44.464Z,99.90
2024-04-17T04:08:50.994Z,99.90
2024-04-17T04:09:55.882Z,99.90
2024-04-17T04:11:08.011Z,99.90
2024-04-17T04:12:18.692Z,99.90
2024-04-17T04:13:23.812Z,99.90
2024-04-17T04:14:32.086Z,99.90
2024-04-17T04:15:40.841Z,99.90
2024-04-17T04:16:44.557Z,99.90
2024-04-17T04:17:52.472Z,99.90
2024-04-17T04:19:00.608Z,99.90
2024-04-17T04:20:08.080Z,99.90
2024-04-17T04:21:16.232Z,99.90
2024-04-17T04:22:23.761Z,99.90
2024-04-17T04:23:28.626Z,99.90
2024-04-17T04:24:34.191Z,99.90
2024-04-17T04:25:39.664Z,99.90
2024-04-17T04:26:47.162Z,99.30
2024-04-17T04:27:52.813Z,98.30
2024-04-17T04:29:03.970Z,96.90
2024-04-17T04:30:12.842Z,95.60
2024-04-17T04:31:18.108Z,94.30
2024-04-17T04:32:23.735Z,93.30
2024-04-17T04:33:31.797Z,93.00
2024-04-17T04:34:40.040Z,92.30
2024-04-17T04:35:47.130Z,91.40
2024-04-17T04:36:56.945Z,92.30
2024-04-17T04:38:00.486Z,93.70
2024-04-17T04:39:07.604Z,94.80
2024-04-17T04:40:14.900Z,95.40
2024-04-17T04:41:24.754Z,95.50
2024-04-17T04:42:28.407Z,95.50
2024-04-17T04:43:33.173Z,95.90
2024-04-17T04:44:43.682Z,95.80
2024-04-17T04:45:51.660Z,96.00
2024-04-17T04:47:00.718Z,96.40
2024-04-17T04:48:11.347Z,96.40
2024-04-17T04:49:20.670Z,96.00
2024-04-17T04:50:26.123Z,95.40
2024-04-17T04:51:28.810Z,95.20
2024-04-17T04:52:37.939Z,95.00
2024-04-17T04:53:40.578Z,94.80
2024-04-17T04:54:44.797Z,94.10
2024-04-17T04:56:00.815Z,94.20
2024-04-17T04:57:08.064Z,94.20
2024-04-17T04:58:16.264Z,94.10
2024-04-17T04:59:23.666Z,93.80
2024-04-17T05:00:32.140Z,93.40
2024-04-17T05:01:42.064Z,94.10
2024-04-17T05:02:46.287Z,93.60
2024-04-17T05:03:54.417Z,93.00
2024-04-17T05:05:00.509Z,93.50
2024-04-17T05:06:04.812Z,93.50
2024-04-17T05:07:16.425Z,92.80
2024-04-17T05:08:24.576Z,92.70
2024-04-17T05:09:31.660Z,92.00
2024-04-17T05:10:35.568Z,91.70
2024-04-17T05:11:38.170Z,92.00
2024-04-17T05:12:43.651Z,91.80
2024-04-17T05:13:48.937Z,91.50
2024-04-17T05:14:58.069Z,91.40
2024-04-17T05:16:08.456Z,91.10
2024-04-17T05:17:20.696Z,91.10
2024-04-17T05:18:24.594Z,90.50
2024-04-17T05:19:32.787Z,90.10
2024-04-17T05:20:42.002Z,90.20
2024-04-17T05:21:44.663Z,90.10
2024-04-17T05:23:00.262Z,89.30
2024-04-17T05:24:10.174Z,89.50
2024-04-17T05:25:16.060Z,90.00
2024-04-17T05:26:28.152Z,90.00
2024-04-17T05:27:35.574Z,89.10
2024-04-17T05:28:38.831Z,89.30
2024-04-17T05:29:47.142Z,89.70
2024-04-17T05:31:01.886Z,89.50
2024-04-17T05:32:04.749Z,88.60
2024-04-17T05:33:18.668Z,87.30
2024-04-17T05:34:23.674Z,87.40
2024-04-17T05:35:34.218Z,87.60
2024-04-17T05:36:48.051Z,87.60
2024-04-17T05:37:56.926Z,88.10
2024-04-17T05:39:04.534Z,87.70
2024-04-17T05:40:16.191Z,86.80
2024-04-17T05:41:24.098Z,87.00
2024-04-17T05:42:32.409Z,86.40
2024-04-17T05:43:46.739Z,87.70
2024-04-17T05:44:52.571Z,87.80
2024-04-17T05:45:56.031Z,86.80
2024-04-17T05:47:15.858Z,86.90
2024-04-17T05:48:23.869Z,86.00
2024-04-17T05:49:29.926Z,86.40
2024-04-17T05:50:46.087Z,86.70
2024-04-17T05:51:48.751Z,85.60
2024-04-17T05:52:52.114Z,86.30
2024-04-17T05:54:02.236Z,86.00
2024-04-17T05:55:07.841Z,85.00
2024-04-17T05:56:11.252Z,85.20
2024-04-17T05:57:13.934Z,84.70
2024-04-17T05:58:19.365Z,84.70
2024-04-17T05:59:24.802Z,84.00
2024-04-17T06:00:32.963Z,83.00
2024-04-17T06:01:40.758Z,84.10
2024-04-17T06:02:48.315Z,82.90
2024-04-17T06:03:56.844Z,83.70
2024-04-17T06:05:11.094Z,83.70
2024-04-17T06:06:16.070Z,83.90
2024-04-17T06:07:24.779Z,84.30
2024-04-17T06:08:32.185Z,84.30
2024-04-17T06:09:40.664Z,83.90
2024-04-17T06:10:52.475Z,84.00
2024-04-17T06:12:00.411Z,84.30
2024-04-17T06:13:07.470Z,84.40
2024-04-17T06:14:19.237Z,84.60
2024-04-17T06:15:24.934Z,84.10
2024-04-17T06:16:35.912Z,83.80
2024-04-17T06:17:43.984Z,82.70
2024-04-17T06:18:52.718Z,82.70
2024-04-17T06:20:03.939Z,83.60
2024-04-17T06:21:12.548Z,82.60
2024-04-17T06:22:19.471Z,82.60
2024-04-17T06:23:28.786Z,82.60
2024-04-17T06:24:35.523Z,82.30
2024-04-17T06:25:52.402Z,82.50
2024-04-17T06:27:00.376Z,82.80
2024-04-17T06:28:16.452Z,82.00
2024-04-17T06:29:20.596Z,82.90
2024-04-17T06:30:28.389Z,84.00
2024-04-17T06:31:47.188Z,82.70
2024-04-17T06:32:52.383Z,83.80
2024-04-17T06:34:03.971Z,84.50
2024-04-17T06:35:18.430Z,85.10
2024-04-17T06:36:23.741Z,84.60
2024-04-17T06:37:31.335Z,85.20
2024-04-17T06:38:33.958Z,87.80
2024-04-17T06:39:40.208Z,89.60
2024-04-17T06:40:48.395Z,90.20
2024-04-17T06:42:02.378Z,91.80
2024-04-17T06:43:07.128Z,92.80
2024-04-17T06:44:15.077Z,91.90
2024-04-17T06:45:20.772Z,90.20
2024-04-17T06:46:32.660Z,89.50
2024-04-17T06:47:48.074Z,89.40
2024-04-17T06:48:52.476Z,89.70
2024-04-17T06:50:03.165Z,90.10
2024-04-17T06:51:10.895Z,89.20
2024-04-17T06:52:19.742Z,90.60
2024-04-17T06:53:23.748Z,91.20
2024-04-17T06:54:30.091Z,91.30
2024-04-17T06:55:32.751Z,90.90
2024-04-17T06:56:38.152Z,90.80
2024-04-17T06:57:43.666Z,91.40
2024-04-17T06:58:48.628Z,92.10
2024-04-17T06:59:55.876Z,92.40
2024-04-17T07:01:03.811Z,91.60
2024-04-17T07:02:10.254Z,92.30
2024-04-17T07:03:15.903Z,92.70
2024-04-17T07:04:23.655Z,92.60
2024-04-17T07:05:32.505Z,93.40
2024-04-17T07:06:39.736Z,92.80
2024-04-17T07:07:48.114Z,92.40
2024-04-17T07:08:55.678Z,92.60
2024-04-17T07:10:03.982Z,92.80
2024-04-17T07:12:28.530Z,92.40
2024-04-17T07:13:34.510Z,92.60
2024-04-17T07:14:39.992Z,92.10
2024-04-17T07:15:47.444Z,92.70
2024-04-17T07:17:03.022Z,94.50
2024-04-17T07:18:06.774Z,94.70
2024-04-17T07:19:16.757Z,94.70
2024-04-17T07:20:31.497Z,94.40
2024-04-17T07:21:35.998Z,97.90
2024-04-17T07:22:44.019Z,94.60
2024-04-17T07:23:48.575Z,93.90
2024-04-17T07:24:56.684Z,94.10
2024-04-17T07:26:07.868Z,93.40
2024-04-17T07:27:28.462Z,95.10
2024-04-17T07:28:36.670Z,93.40
2024-04-17T07:29:40.645Z,93.10
2024-04-17T07:30:46.776Z,96.10
2024-04-17T07:31:51.762Z,93.70
2024-04-17T07:33:00.254Z,93.20
2024-04-17T07:34:08.853Z,94.00
2024-04-17T07:35:44.068Z,92.70
2024-04-17T07:37:00.085Z,91.70
2024-04-17T07:38:08.795Z,91.00
2024-04-17T07:39:20.160Z,91.00
2024-04-17T07:40:32.542Z,90.80
2024-04-17T07:41:38.979Z,90.60
2024-04-17T07:42:43.536Z,90.80
2024-04-17T07:43:52.500Z,91.20
2024-04-17T07:44:56.561Z,89.60
2024-04-17T07:46:03.641Z,90.30
2024-04-17T07:47:12.682Z,89.60
2024-04-17T07:48:19.390Z,90.20
2024-04-17T07:49:22.828Z,89.70
2024-04-17T07:50:27.926Z,90.00
2024-04-17T07:51:36.386Z,85.70
2024-04-17T07:52:43.695Z,85.40
2024-04-17T07:53:47.861Z,86.20
2024-04-17T07:54:55.611Z,85.60
2024-04-17T07:56:03.874Z,85.00
2024-04-17T07:57:12.784Z,85.70
2024-04-17T07:58:18.053Z,87.50
2024-04-17T07:59:32.730Z,88.90
2024-04-17T08:00:40.202Z,87.90
2024-04-17T08:01:45.072Z,86.40
2024-04-17T08:02:51.423Z,87.50
2024-04-17T08:04:00.526Z,87.70
2024-04-17T08:05:08.673Z,88.70
2024-04-17T08:06:18.977Z,89.20
2024-04-17T08:07:31.795Z,90.10
2024-04-17T08:08:40.398Z,90.40
2024-04-17T08:09:46.920Z,90.20
2024-04-17T08:10:52.012Z,91.10
2024-04-17T08:11:59.787Z,91.00
2024-04-17T08:13:15.928Z,90.70
2024-04-17T08:14:24.268Z,91.20
2024-04-17T08:15:32.591Z,91.30
2024-04-17T08:16:41.537Z,91.50
2024-04-17T08:17:47.795Z,93.00
2024-04-17T08:18:51.924Z,92.30
2024-04-17T08:20:00.263Z,92.30
2024-04-17T08:21:10.259Z,92.10
2024-04-17T08:22:16.180Z,91.80
2024-04-17T08:23:24.120Z,91.90
2024-04-17T08:24:32.298Z,92.00
2024-04-17T08:25:35.760Z,91.80
2024-04-17T08:26:43.620Z,91.60
2024-04-17T08:27:51.986Z,91.80
2024-04-17T08:29:01.018Z,92.00
2024-04-17T08:30:23.030Z,92.30
2024-04-17T08:31:28.273Z,92.20
2024-04-17T08:32:36.985Z,92.00
2024-04-17T08:33:47.056Z,92.20
2024-04-17T08:34:52.262Z,92.70
2024-04-17T08:36:04.785Z,92.50
2024-04-17T08:37:10.680Z,92.40
2024-04-17T08:38:20.438Z,94.00
2024-04-17T08:39:31.896Z,94.00
2024-04-17T08:40:40.090Z,93.20
2024-04-17T08:42:34.994Z,93.20
2024-04-17T08:43:29.199Z,93.30
2024-04-17T08:44:48.700Z,94.90
2024-04-17T08:45:56.803Z,95.00
2024-04-17T08:47:23.898Z,94.70
2024-04-17T08:48:28.004Z,95.20
2024-04-17T08:49:36.258Z,94.60
2024-04-17T08:50:46.110Z,93.30
2024-04-17T08:51:52.153Z,93.00
2024-04-17T08:52:56.642Z,94.20
2024-04-17T08:54:03.639Z,94.10
2024-04-17T08:55:20.644Z,94.40
2024-04-17T08:56:27.797Z,94.30
2024-04-17T08:57:35.994Z,95.50
2024-04-17T08:58:51.368Z,94.00
2024-04-17T09:00:06.915Z,93.20
2024-04-17T09:01:23.483Z,93.00
2024-04-17T09:02:31.688Z,93.20
2024-04-17T09:03:44.303Z,93.60
2024-04-17T09:04:52.192Z,93.50
2024-04-17T09:06:00.022Z,92.90
2024-04-17T09:08:31.063Z,92.40
2024-04-17T09:09:35.867Z,92.80
2024-04-17T09:10:44.219Z,92.30
2024-04-17T09:11:52.512Z,92.90
2024-04-17T09:12:57.943Z,94.20
2024-04-17T09:14:13.980Z,93.70
2024-04-17T09:15:21.972Z,92.40
2024-04-17T09:16:26.914Z,93.20
2024-04-17T09:17:32.418Z,92.10
2024-04-17T09:18:43.668Z,91.70
2024-04-17T09:19:50.725Z,92.30
2024-04-17T09:21:02.254Z,92.60
2024-04-17T09:22:07.806Z,91.80
2024-04-17T09:23:16.423Z,92.80
2024-04-17T09:24:20.592Z,92.80
2024-04-17T09:25:35.066Z,91.60
2024-04-17T09:26:51.532Z,92.70
2024-04-17T09:28:00.292Z,94.30
2024-04-17T09:29:10.193Z,95.40
2024-04-17T09:30:17.036Z,94.10
2024-04-17T09:31:28.257Z,92.80
2024-04-17T09:32:35.891Z,92.10
2024-04-17T09:33:56.223Z,92.10
2024-04-17T09:35:06.975Z,93.10
2024-04-17T09:36:10.247Z,92.50
2024-04-17T09:37:19.539Z,92.80
2024-04-17T09:38:32.330Z,93.00
2024-04-17T09:39:38.092Z,92.00
2024-04-17T09:40:48.917Z,92.80
2024-04-17T09:42:03.615Z,93.10
2024-04-17T09:43:30.007Z,92.70
2024-04-17T09:44:44.090Z,92.90
2024-04-17T09:46:12.431Z,94.80
2024-04-17T09:47:23.815Z,93.70
2024-04-17T09:48:32.111Z,93.10
2024-04-17T09:49:43.592Z,93.00
2024-04-17T09:50:52.402Z,93.50
2024-04-17T09:51:59.474Z,93.10
2024-04-17T09:53:04.706Z,94.20
2024-04-17T09:54:26.023Z,94.40
2024-04-17T09:55:32.077Z,93.50
2024-04-17T09:56:36.692Z,93.60
2024-04-17T09:57:54.058Z,93.30
2024-04-17T09:59:08.700Z,93.50
2024-04-17T10:00:20.561Z,93.30
2024-04-17T10:01:31.679Z,93.50
2024-04-17T10:02:36.324Z,93.70
2024-04-17T10:03:44.716Z,93.80
2024-04-17T10:04:51.688Z,94.20
2024-04-17T10:05:56.050Z,94.70
2024-04-17T10:07:10.887Z,94.50
2024-04-17T10:08:19.448Z,95.60
2024-04-17T10:09:24.600Z,95.20
2024-04-17T10:10:42.845Z,94.90
2024-04-17T10:11:56.790Z,95.90
2024-04-17T10:13:19.663Z,94.80
2024-04-17T10:14:32.287Z,95.40
2024-04-17T10:15:40.897Z,96.00
2024-04-17T10:16:47.824Z,96.60
2024-04-17T10:17:56.855Z,96.90
2024-04-17T10:19:03.954Z,97.10
2024-04-17T10:20:30.022Z,97.40
2024-04-17T10:21:43.842Z,96.30
2024-04-17T10:22:52.396Z,96.80
2024-04-17T10:24:04.345Z,97.60
2024-04-17T10:25:20.649Z,97.20
2024-04-17T10:26:49.051Z,96.50
2024-04-17T10:27:52.726Z,97.90
2024-04-17T10:29:03.409Z,98.00
2024-04-17T10:30:16.628Z,98.40
2024-04-17T10:31:23.530Z,98.90
2024-04-17T10:32:35.323Z,98.00
2024-04-17T10:33:44.129Z,98.10
2024-04-17T10:35:00.361Z,97.70
2024-04-17T10:36:07.847Z,97.50
2024-04-17T10:37:16.447Z,97.70
2024-04-17T10:38:32.073Z,97.90
2024-04-17T10:39:44.239Z,98.10
2024-04-17T10:40:52.469Z,97.40
2024-04-17T10:42:03.690Z,98.00
2024-04-17T10:43:20.027Z,98.30
2024-04-17T10:44:32.288Z,98.30
2024-04-17T10:45:36.761Z,98.50
2024-04-17T10:46:50.464Z,98.80
2024-04-17T10:47:55.577Z,99.00
2024-04-17T10:48:59.115Z,99.20
2024-04-17T10:50:15.931Z,99.50
2024-04-17T10:51:24.578Z,99.70
2024-04-17T10:52:31.811Z,98.90
2024-04-17T10:53:47.343Z,98.90
2024-04-17T10:54:55.270Z,99.80
2024-04-17T10:56:05.861Z,99.30
2024-04-17T10:57:20.177Z,99.70
2024-04-17T10:58:28.349Z,99.90
2024-04-17T10:59:42.072Z,99.90
2024-04-17T11:00:47.441Z,99.90
2024-04-17T11:01:52.512Z,99.90
2024-04-17T11:02:59.827Z,99.90
2024-04-17T11:04:07.644Z,99.90
2024-04-17T11:05:32.479Z,99.90
2024-04-17T11:06:40.575Z,99.90
2024-04-17T11:07:47.112Z,99.90
2024-04-17T11:08:58.439Z,99.90
2024-04-17T11:10:19.689Z,99.90
2024-04-17T11:11:27.055Z,99.90
2024-04-17T11:12:33.898Z,99.90
2024-04-17T11:13:48.252Z,99.90
2024-04-17T11:15:08.023Z,99.90
2024-04-17T11:16:19.790Z,99.90
2024-04-17T11:17:29.065Z,99.90
2024-04-17T11:18:38.380Z,99.90
2024-04-17T11:19:44.030Z,99.90
2024-04-17T11:20:51.806Z,99.90
2024-04-17T11:22:03.717Z,99.90
2024-04-17T11:23:09.989Z,99.90
2024-04-17T11:24:24.160Z,99.90
2024-04-17T11:25:32.662Z,99.90
2024-04-17T11:26:40.743Z,99.90
2024-04-17T11:27:46.896Z,99.90
2024-04-17T11:28:52.588Z,99.90
2024-04-17T11:30:24.258Z,99.90
2024-04-17T11:31:31.982Z,99.90
2024-04-17T11:32:40.435Z,99.90
2024-04-17T11:33:56.290Z,99.90
2024-04-17T11:35:19.451Z,99.90
2024-04-17T11:36:23.739Z,99.90
2024-04-17T11:37:32.120Z,99.90
2024-04-17T11:38:38.734Z,99.90
2024-04-17T11:39:51.120Z,99.90
2024-04-17T11:40:54.015Z,99.90
2024-04-17T11:41:59.585Z,99.90
2024-04-17T11:43:07.363Z,99.90
2024-04-17T11:44:18.404Z,99.90
2024-04-17T11:45:31.406Z,99.90
2024-04-17T11:46:35.911Z,99.90
2024-04-17T11:47:44.563Z,99.90
2024-04-17T11:48:52.750Z,99.90
2024-04-17T11:49:59.975Z,99.90
2024-04-17T11:51:08.286Z,99.90
2024-04-17T11:52:19.468Z,99.90
2024-04-17T11:53:28.367Z,99.90
2024-04-17T11:54:36.539Z,99.90
2024-04-17T11:55:40.799Z,99.90
2024-04-17T11:56:47.842Z,99.90
2024-04-17T11:57:56.459Z,99.90
2024-04-17T11:59:08.122Z,99.90
2024-04-17T12:00:27.891Z,99.90
2024-04-17T12:01:36.404Z,99.90
2024-04-17T12:02:44.718Z,99.90
2024-04-17T12:03:55.967Z,99.90
2024-04-17T12:05:04.169Z,99.90
2024-04-17T12:06:15.565Z,99.90
2024-04-17T12:07:24.574Z,99.90
2024-04-17T12:08:32.528Z,99.90
2024-04-17T12:09:43.689Z,99.90
2024-04-17T12:10:51.535Z,99.90
2024-04-17T12:11:58.381Z,99.90
2024-04-17T12:13:03.983Z,99.90
2024-04-17T12:14:14.800Z,99.90
2024-04-17T12:15:17.787Z,99.90
2024-04-17T12:16:28.305Z,99.90
2024-04-17T12:17:34.989Z,99.90
2024-04-17T12:18:38.827Z,99.90
2024-04-17T12:19:44.323Z,99.90
2024-04-17T12:20:52.831Z,99.90
2024-04-17T12:21:59.700Z,99.90
2024-04-17T12:23:08.220Z,99.90
2024-04-17T12:24:24.086Z,99.90
2024-04-17T12:25:48.563Z,99.90
2024-04-17T12:26:59.622Z,99.90
2024-04-17T12:28:04.353Z,99.90
2024-04-17T12:29:19.829Z,99.90
2024-04-17T12:30:27.251Z,99.90
2024-04-17T12:31:34.300Z,99.90
2024-04-17T12:32:51.597Z,99.90
2024-04-17T12:33:59.434Z,99.90
2024-04-17T12:35:09.831Z,99.90
2024-04-17T12:36:23.952Z,99.90
2024-04-17T12:37:32.364Z,99.90
2024-04-17T12:38:42.079Z,99.90
2024-04-17T12:39:46.187Z,99.90
2024-04-17T12:40:51.646Z,99.90
2024-04-17T12:42:00.360Z,99.90
2024-04-17T12:43:13.729Z,99.90
2024-04-17T12:44:19.081Z,99.90
2024-04-17T12:45:21.714Z,99.90
2024-04-17T12:46:26.990Z,99.90
2024-04-17T12:47:32.370Z,99.90
2024-04-17T12:48:43.959Z,99.90
2024-04-17T12:49:52.394Z,99.90
2024-04-17T12:51:04.385Z,99.90
2024-04-17T12:52:07.996Z,99.90
2024-04-17T12:53:26.869Z,99.90
2024-04-17T12:54:29.644Z,99.90
2024-04-17T12:55:32.365Z,99.90
2024-04-17T12:56:43.144Z,99.90
2024-04-17T12:57:51.708Z,99.90
2024-04-17T12:58:59.179Z,99.90
2024-04-17T13:00:06.929Z,99.90
2024-04-17T13:01:15.482Z,99.90
2024-04-17T13:02:31.038Z,99.90
2024-04-17T13:03:44.020Z,99.90
2024-04-17T13:04:49.614Z,99.90
2024-04-17T13:06:04.418Z,99.90
2024-04-17T13:07:08.097Z,99.90
2024-04-17T13:08:23.041Z,99.90
2024-04-17T13:09:31.778Z,99.90
2024-04-17T13:10:40.564Z,99.90
2024-04-17T13:11:52.113Z,99.90
2024-04-17T13:12:59.125Z,99.90
2024-04-17T13:14:14.953Z,99.90
2024-04-17T13:15:23.375Z,99.90
2024-04-17T13:16:34.331Z,99.90
2024-04-17T13:17:39.555Z,99.90
2024-04-17T13:18:47.364Z,99.90
2024-04-17T13:19:55.301Z,99.90
2024-04-17T13:21:09.883Z,99.90
2024-04-17T13:22:13.814Z,99.90
2024-04-17T13:23:22.460Z,99.90
2024-04-17T13:24:28.075Z,99.90
2024-04-17T13:25:35.718Z,99.90
2024-04-17T13:26:44.321Z,99.90
2024-04-17T13:27:55.504Z,99.90
2024-04-17T13:29:03.612Z,99.90
2024-04-17T13:30:13.731Z,99.90
2024-04-17T13:31:16.341Z,99.90
2024-04-17T13:32:27.518Z,99.90
2024-04-17T13:33:35.293Z,99.90
2024-04-17T13:34:43.465Z,99.90
2024-04-17T13:36:00.485Z,99.90
2024-04-17T13:37:06.706Z,99.90
2024-04-17T13:38:09.780Z,99.90
2024-04-17T13:39:21.782Z,99.90
2024-04-17T13:40:30.466Z,99.90
2024-04-17T13:41:46.526Z,99.90
2024-04-17T13:42:52.310Z,99.90
2024-04-17T13:43:59.453Z,99.90
2024-04-17T13:45:07.902Z,99.90
2024-04-17T13:46:20.268Z,99.90
2024-04-17T13:47:24.330Z,99.90
2024-04-17T13:48:34.952Z,99.90
2024-04-17T13:49:40.599Z,99.90
2024-04-17T13:51:02.797Z,99.90
2024-04-17T13:52:22.037Z,99.90
2024-04-17T13:53:27.457Z,99.90
2024-04-17T13:54:36.086Z,99.90
2024-04-17T13:55:43.043Z,99.90
2024-04-17T13:56:48.431Z,99.90
2024-04-17T13:58:00.137Z,99.90
2024-04-17T13:59:07.266Z,99.90
2024-04-17T14:00:19.146Z,99.90
2024-04-17T14:01:27.506Z,99.90
2024-04-17T14:02:36.157Z,99.90
2024-04-17T14:03:51.049Z,99.90
2024-04-17T14:04:59.199Z,99.90
2024-04-17T14:06:03.832Z,99.90
2024-04-17T14:07:13.979Z,99.90
2024-04-17T14:08:21.133Z,99.90
2024-04-17T14:09:25.712Z,99.90
2024-04-17T14:10:31.426Z,99.90
2024-04-17T14:11:39.168Z,99.90
2024-04-17T14:12:43.690Z,99.90
2024-04-17T14:13:51.705Z,99.90
2024-04-17T14:14:59.982Z,99.90
2024-04-17T14:16:07.508Z,99.90
2024-04-17T14:17:15.198Z,99.90
2024-04-17T14:18:20.496Z,99.90
2024-04-17T14:19:31.727Z,99.90
2024-04-17T14:20:51.588Z,99.90
2024-04-17T14:22:00.492Z,99.90
2024-04-17T14:23:22.712Z,99.90
2024-04-17T14:24:35.789Z,99.90
2024-04-17T14:25:44.114Z,99.90
2024-04-17T14:26:47.941Z,99.90
2024-04-17T14:27:56.454Z,99.90
2024-04-17T14:29:07.833Z,99.90
2024-04-17T14:30:20.055Z,99.90
2024-04-17T14:31:23.758Z,99.90
2024-04-17T14:32:32.008Z,99.90
2024-04-17T14:33:44.536Z,99.90
2024-04-17T14:34:48.039Z,99.90
2024-04-17T14:35:58.693Z,99.90
2024-04-17T14:37:04.119Z,99.90
2024-04-17T14:39:27.292Z,99.90
2024-04-17T14:40:34.452Z,99.90
2024-04-17T14:41:47.093Z,99.90
2024-04-17T14:42:55.623Z,99.90
2024-04-17T14:44:03.794Z,99.90
2024-04-17T14:45:15.927Z,99.90